PADU

Unalaska Airport

Airport
ICAO code
PADU
IATA Code
DUT
Summary
ICAO Region
NAM
ICAO Territory
Location

Unalaska Island,

Serving
Unalaska Island
Coordinates
53° 53' 56" N , 166° 32' 41" W
KCC
Airport BS
Bird Strike
Non Avian Wildlife Hazards to Aircraft
Airport WX
Fog
Metar
Observation
PADU 252019Z 29012KT 7SM FEW007 SCT012 BKN030 08/03 A2984 RMK AO2
Station
Unalaska, Unalaska Airport
Date/Time
2022-09-25 20:19:00
Wind direction
290°
Wind speed
12 kts
Lowest cloud amount
few clouds
Temperature
8°C
Dew point
3°C
Humidity
70%
Weather condition
n/a

Description

Regional airport serving Unalaska, Alaska which is located on Unalaska Island and neighboring Amaknak Island in the Aleutian Island chain.

Climatology

Subpolar oceanic climate(Köppen climate classification Cfc) - moderate and fairly uniform temperatures and heavy rainfall. Fog is often present even when it is not raining. Summer weather is around 5 °F (2.8 °C) cooler than Southeast Alaska (Sitka), but the winter temperatures are nearly the same.

Runways

Designator Length Width Surface Rops
12/30 1189 30 ASP Yes/Yes

Airport map

Aerial View

Airport accidents

SKYbrary Partners:

Safety knowledge contributed by: